sensor_id;sensor_type;location;lat;lon;timestamp;pressure;altitude;pressure_sealevel;temperature;humidity
48964;BME280;34776;48.180;16.420;2023-03-14T00:01:57;98139.16;;;9.88;55.43
48964;BME280;34776;48.180;16.420;2023-03-14T00:04:23;98135.78;;;9.86;55.50
48964;BME280;34776;48.180;16.420;2023-03-14T00:06:48;98134.94;;;9.86;55.61
48964;BME280;34776;48.180;16.420;2023-03-14T00:09:15;98127.09;;;9.84;55.58
48964;BME280;34776;48.180;16.420;2023-03-14T00:11:40;98124.56;;;9.83;55.71
48964;BME280;34776;48.180;16.420;2023-03-14T00:14:05;98112.38;;;9.80;55.53
48964;BME280;34776;48.180;16.420;2023-03-14T00:16:31;98109.97;;;9.77;55.65
48964;BME280;34776;48.180;16.420;2023-03-14T00:18:58;98115.63;;;9.72;55.94
48964;BME280;34776;48.180;16.420;2023-03-14T00:21:24;98106.78;;;9.72;56.08
48964;BME280;34776;48.180;16.420;2023-03-14T00:23:49;98105.13;;;9.71;56.24
48964;BME280;34776;48.180;16.420;2023-03-14T00:26:17;98103.41;;;9.70;56.09
48964;BME280;34776;48.180;16.420;2023-03-14T00:28:43;98093.66;;;9.70;56.02
48964;BME280;34776;48.180;16.420;2023-03-14T00:31:10;98088.69;;;9.66;56.54
48964;BME280;34776;48.180;16.420;2023-03-14T00:33:36;98095.91;;;9.64;56.34
48964;BME280;34776;48.180;16.420;2023-03-14T00:36:04;98094.47;;;9.60;56.46
48964;BME280;34776;48.180;16.420;2023-03-14T00:38:31;98097.34;;;9.57;56.61
48964;BME280;34776;48.180;16.420;2023-03-14T00:40:57;98083.34;;;9.54;56.58
48964;BME280;34776;48.180;16.420;2023-03-14T00:43:23;98086.34;;;9.50;56.68
48964;BME280;34776;48.180;16.420;2023-03-14T00:45:49;98082.97;;;9.48;56.87
48964;BME280;34776;48.180;16.420;2023-03-14T00:48:15;98090.19;;;9.46;56.78
48964;BME280;34776;48.180;16.420;2023-03-14T00:50:40;98085.97;;;9.43;56.85
48964;BME280;34776;48.180;16.420;2023-03-14T00:53:06;98078.47;;;9.37;56.86
48964;BME280;34776;48.180;16.420;2023-03-14T00:55:31;98076.75;;;9.36;56.91
48964;BME280;34776;48.180;16.420;2023-03-14T00:57:56;98061.22;;;9.31;56.50
48964;BME280;34776;48.180;16.420;2023-03-14T01:00:22;98058.91;;;9.27;56.93
48964;BME280;34776;48.180;16.420;2023-03-14T01:02:47;98059.97;;;9.24;57.11
48964;BME280;34776;48.180;16.420;2023-03-14T01:05:13;98048.75;;;9.21;57.01
48964;BME280;34776;48.180;16.420;2023-03-14T01:07:38;98048.13;;;9.17;57.41
48964;BME280;34776;48.180;16.420;2023-03-14T01:10:05;98046.44;;;9.16;57.32
48964;BME280;34776;48.180;16.420;2023-03-14T01:12:31;98036.94;;;9.13;57.21
48964;BME280;34776;48.180;16.420;2023-03-14T01:14:56;98032.69;;;9.11;57.17
48964;BME280;34776;48.180;16.420;2023-03-14T01:17:22;98025.06;;;9.06;57.13
48964;BME280;34776;48.180;16.420;2023-03-14T01:19:47;98023.63;;;9.02;57.36
48964;BME280;34776;48.180;16.420;2023-03-14T01:22:13;98031.06;;;8.97;57.50
48964;BME280;34776;48.180;16.420;2023-03-14T01:24:38;98016.34;;;8.93;57.38
48964;BME280;34776;48.180;16.420;2023-03-14T01:27:04;98019.44;;;8.87;57.44
48964;BME280;34776;48.180;16.420;2023-03-14T01:29:29;98010.97;;;8.82;57.62
48964;BME280;34776;48.180;16.420;2023-03-14T01:31:56;98015.78;;;8.77;57.88
48964;BME280;34776;48.180;16.420;2023-03-14T01:34:21;98014.41;;;8.71;57.84
48964;BME280;34776;48.180;16.420;2023-03-14T01:36:46;98007.66;;;8.67;57.93
48964;BME280;34776;48.180;16.420;2023-03-14T01:39:12;97999.84;;;8.65;58.29
48964;BME280;34776;48.180;16.420;2023-03-14T01:41:38;98007.97;;;8.62;58.15
48964;BME280;34776;48.180;16.420;2023-03-14T01:44:04;98004.84;;;8.57;58.25
48964;BME280;34776;48.180;16.420;2023-03-14T01:46:36;98006.00;;;8.53;58.42
48964;BME280;34776;48.180;16.420;2023-03-14T01:54:39;98000.81;;;8.39;58.98
48964;BME280;34776;48.180;16.420;2023-03-14T01:57:14;98009.19;;;8.32;58.54
48964;BME280;34776;48.180;16.420;2023-03-14T01:59:45;98004.34;;;8.26;58.80
48964;BME280;34776;48.180;16.420;2023-03-14T02:02:13;98006.47;;;8.21;59.13
48964;BME280;34776;48.180;16.420;2023-03-14T02:04:40;98017.25;;;8.18;59.11
48964;BME280;34776;48.180;16.420;2023-03-14T02:07:32;98015.88;;;8.12;59.21
48964;BME280;34776;48.180;16.420;2023-03-14T02:09:55;98017.78;;;8.10;59.17
48964;BME280;34776;48.180;16.420;2023-03-14T02:12:21;98018.13;;;8.06;59.45
48964;BME280;34776;48.180;16.420;2023-03-14T02:14:47;98018.44;;;8.01;59.42
48964;BME280;34776;48.180;16.420;2023-03-14T02:17:17;98011.59;;;7.99;59.56
48964;BME280;34776;48.180;16.420;2023-03-14T02:22:15;98009.88;;;7.98;59.95
48964;BME280;34776;48.180;16.420;2023-03-14T02:27:38;98015.91;;;8.00;59.91
48964;BME280;34776;48.180;16.420;2023-03-14T02:30:06;98012.41;;;7.99;60.02
48964;BME280;34776;48.180;16.420;2023-03-14T02:32:37;98014.97;;;8.01;59.98
48964;BME280;34776;48.180;16.420;2023-03-14T02:35:09;98014.97;;;8.01;59.99
48964;BME280;34776;48.180;16.420;2023-03-14T02:37:47;98026.47;;;8.00;60.48
48964;BME280;34776;48.180;16.420;2023-03-14T02:40:14;98044.16;;;7.99;60.37
48964;BME280;34776;48.180;16.420;2023-03-14T02:42:39;98053.91;;;7.99;60.30
48964;BME280;34776;48.180;16.420;2023-03-14T02:47:34;98056.22;;;8.03;60.70
48964;BME280;34776;48.180;16.420;2023-03-14T02:50:09;98055.16;;;8.06;60.83
48964;BME280;34776;48.180;16.420;2023-03-14T02:52:35;98062.88;;;8.09;60.84
48964;BME280;34776;48.180;16.420;2023-03-14T02:55:00;98067.22;;;8.10;60.88
48964;BME280;34776;48.180;16.420;2023-03-14T02:57:26;98076.13;;;8.09;60.88
48964;BME280;34776;48.180;16.420;2023-03-14T02:59:51;98086.69;;;8.09;60.95
48964;BME280;34776;48.180;16.420;2023-03-14T03:02:17;98076.88;;;8.11;61.35
48964;BME280;34776;48.180;16.420;2023-03-14T03:04:42;98098.53;;;8.16;61.28
48964;BME280;34776;48.180;16.420;2023-03-14T03:07:08;98101.81;;;8.20;61.24
48964;BME280;34776;48.180;16.420;2023-03-14T03:09:33;98098.34;;;8.19;61.39
48964;BME280;34776;48.180;16.420;2023-03-14T03:11:59;98117.72;;;8.20;61.46
48964;BME280;34776;48.180;16.420;2023-03-14T03:14:24;98110.59;;;8.20;61.45
48964;BME280;34776;48.180;16.420;2023-03-14T03:16:49;98114.97;;;8.21;61.69
48964;BME280;34776;48.180;16.420;2023-03-14T03:19:15;98121.00;;;8.23;61.73
48964;BME280;34776;48.180;16.420;2023-03-14T03:21:42;98126.06;;;8.26;61.53
48964;BME280;34776;48.180;16.420;2023-03-14T03:24:08;98121.59;;;8.27;62.04
48964;BME280;34776;48.180;16.420;2023-03-14T03:26:34;98138.34;;;8.27;62.04
48964;BME280;34776;48.180;16.420;2023-03-14T03:29:00;98134.75;;;8.28;62.10
48964;BME280;34776;48.180;16.420;2023-03-14T03:31:25;98140.69;;;8.32;62.12
48964;BME280;34776;48.180;16.420;2023-03-14T03:33:50;98158.03;;;8.36;61.68
48964;BME280;34776;48.180;16.420;2023-03-14T03:36:20;98169.38;;;8.38;61.82
48964;BME280;34776;48.180;16.420;2023-03-14T03:38:46;98174.47;;;8.41;61.62
48964;BME280;34776;48.180;16.420;2023-03-14T03:41:11;98165.47;;;8.44;61.38
48964;BME280;34776;48.180;16.420;2023-03-14T03:43:37;98163.78;;;8.43;61.36
48964;BME280;34776;48.180;16.420;2023-03-14T03:46:04;98147.69;;;8.46;61.38
48964;BME280;34776;48.180;16.420;2023-03-14T03:48:30;98152.97;;;8.46;61.26
48964;BME280;34776;48.180;16.420;2023-03-14T03:50:55;98154.69;;;8.47;61.10
48964;BME280;34776;48.180;16.420;2023-03-14T03:53:20;98159.75;;;8.50;60.88
48964;BME280;34776;48.180;16.420;2023-03-14T03:55:46;98157.00;;;8.51;60.97
48964;BME280;34776;48.180;16.420;2023-03-14T03:58:11;98150.63;;;8.54;60.82
48964;BME280;34776;48.180;16.420;2023-03-14T04:00:36;98146.09;;;8.56;60.55
48964;BME280;34776;48.180;16.420;2023-03-14T04:03:02;98143.44;;;8.56;60.54
48964;BME280;34776;48.180;16.420;2023-03-14T04:05:27;98152.13;;;8.58;60.62
48964;BME280;34776;48.180;16.420;2023-03-14T04:07:52;98139.63;;;8.60;60.18
48964;BME280;34776;48.180;16.420;2023-03-14T04:10:18;98132.22;;;8.65;59.98
48964;BME280;34776;48.180;16.420;2023-03-14T04:12:43;98127.66;;;8.67;59.83
48964;BME280;34776;48.180;16.420;2023-03-14T04:15:09;98130.91;;;8.71;59.60
48964;BME280;34776;48.180;16.420;2023-03-14T04:17:34;98126.25;;;8.74;59.48
48964;BME280;34776;48.180;16.420;2023-03-14T04:20:00;98135.78;;;8.77;59.14
48964;BME280;34776;48.180;16.420;2023-03-14T04:22:25;98141.91;;;8.78;59.17
48964;BME280;34776;48.180;16.420;2023-03-14T04:24:50;98154.22;;;8.79;58.98
48964;BME280;34776;48.180;16.420;2023-03-14T04:27:16;98154.88;;;8.82;58.81
48964;BME280;34776;48.180;16.420;2023-03-14T04:29:42;98159.94;;;8.85;58.64
48964;BME280;34776;48.180;16.420;2023-03-14T04:32:08;98160.75;;;8.86;58.49
48964;BME280;34776;48.180;16.420;2023-03-14T04:34:33;98167.78;;;8.87;58.44
48964;BME280;34776;48.180;16.420;2023-03-14T04:36:58;98169.44;;;8.88;58.25
48964;BME280;34776;48.180;16.420;2023-03-14T04:39:24;98174.56;;;8.91;58.05
48964;BME280;34776;48.180;16.420;2023-03-14T04:41:49;98186.81;;;8.92;58.09
48964;BME280;34776;48.180;16.420;2023-03-14T04:44:14;98191.28;;;8.91;58.01
48964;BME280;34776;48.180;16.420;2023-03-14T04:46:40;98181.53;;;8.92;57.91
48964;BME280;34776;48.180;16.420;2023-03-14T04:49:05;98168.41;;;8.90;57.88
48964;BME280;34776;48.180;16.420;2023-03-14T04:51:30;98174.56;;;8.91;57.86
48964;BME280;34776;48.180;16.420;2023-03-14T04:53:56;98172.84;;;8.90;57.80
48964;BME280;34776;48.180;16.420;2023-03-14T04:56:21;98158.84;;;8.88;57.84
48964;BME280;34776;48.180;16.420;2023-03-14T04:58:47;98156.94;;;8.90;57.87
48964;BME280;34776;48.180;16.420;2023-03-14T05:01:12;98155.28;;;8.89;57.86
48964;BME280;34776;48.180;16.420;2023-03-14T05:03:37;98164.16;;;8.88;57.80
48964;BME280;34776;48.180;16.420;2023-03-14T05:06:04;98176.66;;;8.86;57.75
48964;BME280;34776;48.180;16.420;2023-03-14T05:08:29;98167.78;;;8.87;57.95
48964;BME280;34776;48.180;16.420;2023-03-14T05:10:57;98166.81;;;8.88;58.03
48964;BME280;34776;48.180;16.420;2023-03-14T05:13:23;98160.34;;;8.92;57.91
48964;BME280;34776;48.180;16.420;2023-03-14T05:15:49;98163.72;;;8.94;57.79
48964;BME280;34776;48.180;16.420;2023-03-14T05:18:16;98174.44;;;8.92;57.74
48964;BME280;34776;48.180;16.420;2023-03-14T05:20:41;98178.88;;;8.92;57.90
48964;BME280;34776;48.180;16.420;2023-03-14T05:23:08;98182.16;;;8.96;58.20
48964;BME280;34776;48.180;16.420;2023-03-14T05:25:33;98182.56;;;9.02;58.07
48964;BME280;34776;48.180;16.420;2023-03-14T05:27:59;98182.38;;;9.05;58.02
48964;BME280;34776;48.180;16.420;2023-03-14T05:30:24;98205.78;;;9.11;58.00
48964;BME280;34776;48.180;16.420;2023-03-14T05:32:49;98223.44;;;9.24;58.08
48964;BME280;34776;48.180;16.420;2023-03-14T05:35:15;98223.88;;;9.30;57.88
48964;BME280;34776;48.180;16.420;2023-03-14T05:37:40;98234.22;;;9.33;57.67
48964;BME280;34776;48.180;16.420;2023-03-14T05:40:06;98239.44;;;9.35;57.53
48964;BME280;34776;48.180;16.420;2023-03-14T05:42:32;98214.41;;;9.39;57.66
48964;BME280;34776;48.180;16.420;2023-03-14T05:44:57;98222.13;;;9.42;57.50
48964;BME280;34776;48.180;16.420;2023-03-14T05:47:23;98226.03;;;9.49;57.19
48964;BME280;34776;48.180;16.420;2023-03-14T05:49:48;98234.59;;;9.53;57.02
48964;BME280;34776;48.180;16.420;2023-03-14T05:52:14;98234.59;;;9.53;56.84
48964;BME280;34776;48.180;16.420;2023-03-14T05:54:39;98232.69;;;9.55;56.78
48964;BME280;34776;48.180;16.420;2023-03-14T05:57:04;98231.72;;;9.56;56.64
48964;BME280;34776;48.180;16.420;2023-03-14T05:59:30;98248.38;;;9.58;56.77
48964;BME280;34776;48.180;16.420;2023-03-14T06:01:55;98255.03;;;9.64;56.31
48964;BME280;34776;48.180;16.420;2023-03-14T06:04:20;98251.00;;;9.71;56.28
48964;BME280;34776;48.180;16.420;2023-03-14T06:06:46;98257.41;;;9.80;56.04
48964;BME280;34776;48.180;16.420;2023-03-14T06:09:11;98264.84;;;9.87;55.89
48964;BME280;34776;48.180;16.420;2023-03-14T06:11:36;98262.66;;;9.92;55.71
48964;BME280;34776;48.180;16.420;2023-03-14T06:14:02;98268.16;;;10.02;55.50
48964;BME280;34776;48.180;16.420;2023-03-14T06:16:27;98258.19;;;10.06;55.21
48964;BME280;34776;48.180;16.420;2023-03-14T06:18:52;98261.06;;;10.14;54.98
48964;BME280;34776;48.180;16.420;2023-03-14T06:21:18;98253.75;;;10.18;55.10
48964;BME280;34776;48.180;16.420;2023-03-14T06:23:44;98260.16;;;10.26;54.57
48964;BME280;34776;48.180;16.420;2023-03-14T06:26:10;98263.97;;;10.35;54.51
48964;BME280;34776;48.180;16.420;2023-03-14T06:28:37;98258.81;;;10.45;54.34
48964;BME280;34776;48.180;16.420;2023-03-14T06:31:02;98246.63;;;10.53;54.03
48964;BME280;34776;48.180;16.420;2023-03-14T06:33:28;98261.28;;;10.59;53.84
48964;BME280;34776;48.180;16.420;2023-03-14T06:35:54;98252.31;;;10.60;53.71
48964;BME280;34776;48.180;16.420;2023-03-14T06:38:19;98255.25;;;10.68;53.49
48964;BME280;34776;48.180;16.420;2023-03-14T06:40:44;98256.69;;;10.72;53.52
48964;BME280;34776;48.180;16.420;2023-03-14T06:43:10;98247.31;;;10.80;53.32
48964;BME280;34776;48.180;16.420;2023-03-14T06:45:35;98243.47;;;10.95;53.17
48964;BME280;34776;48.180;16.420;2023-03-14T06:48:01;98239.00;;;11.18;52.77
48964;BME280;34776;48.180;16.420;2023-03-14T06:50:26;98221.66;;;11.46;52.38
48964;BME280;34776;48.180;16.420;2023-03-14T06:52:51;98228.16;;;11.65;51.57
48964;BME280;34776;48.180;16.420;2023-03-14T06:55:17;98244.34;;;11.73;51.66
48964;BME280;34776;48.180;16.420;2023-03-14T06:57:43;98240.25;;;11.80;51.67
48964;BME280;34776;48.180;16.420;2023-03-14T07:00:10;98232.97;;;11.93;51.15
48964;BME280;34776;48.180;16.420;2023-03-14T07:02:36;98241.41;;;11.98;50.97
48964;BME280;34776;48.180;16.420;2023-03-14T07:05:01;98231.84;;;11.96;50.92
48964;BME280;34776;48.180;16.420;2023-03-14T07:07:27;98250.09;;;12.01;51.32
48964;BME280;34776;48.180;16.420;2023-03-14T07:09:53;98236.63;;;12.13;51.34
48964;BME280;34776;48.180;16.420;2023-03-14T07:12:18;98245.44;;;12.46;50.95
48964;BME280;34776;48.180;16.420;2023-03-14T07:14:44;98255.50;;;12.85;50.05
48964;BME280;34776;48.180;16.420;2023-03-14T07:17:09;98256.19;;;13.08;49.09
48964;BME280;34776;48.180;16.420;2023-03-14T07:19:34;98267.63;;;13.19;48.56
48964;BME280;34776;48.180;16.420;2023-03-14T07:22:00;98268.88;;;13.15;48.62
48964;BME280;34776;48.180;16.420;2023-03-14T07:24:26;98264.59;;;13.03;48.95
48964;BME280;34776;48.180;16.420;2023-03-14T07:26:52;98261.72;;;12.95;49.19
48964;BME280;34776;48.180;16.420;2023-03-14T07:29:17;98268.78;;;12.96;49.40
48964;BME280;34776;48.180;16.420;2023-03-14T07:31:42;98265.13;;;12.97;49.43
48964;BME280;34776;48.180;16.420;2023-03-14T07:34:08;98263.75;;;13.03;50.21
48964;BME280;34776;48.180;16.420;2023-03-14T07:36:33;98269.66;;;13.06;49.78
48964;BME280;34776;48.180;16.420;2023-03-14T07:38:58;98265.31;;;13.05;49.53
48964;BME280;34776;48.180;16.420;2023-03-14T07:41:24;98273.25;;;12.95;49.65
48964;BME280;34776;48.180;16.420;2023-03-14T07:43:49;98264.69;;;12.92;49.91
48964;BME280;34776;48.180;16.420;2023-03-14T07:46:18;98264.88;;;13.00;50.00
48964;BME280;34776;48.180;16.420;2023-03-14T07:48:43;98259.56;;;13.10;49.92
48964;BME280;34776;48.180;16.420;2023-03-14T07:51:09;98252.19;;;13.23;49.80
48964;BME280;34776;48.180;16.420;2023-03-14T07:53:34;98256.94;;;13.40;49.52
48964;BME280;34776;48.180;16.420;2023-03-14T07:56:00;98256.41;;;13.56;49.30
48964;BME280;34776;48.180;16.420;2023-03-14T07:58:25;98257.56;;;13.64;48.99
48964;BME280;34776;48.180;16.420;2023-03-14T08:00:51;98251.41;;;13.73;49.09
48964;BME280;34776;48.180;16.420;2023-03-14T08:03:17;98255.63;;;13.85;48.99
48964;BME280;34776;48.180;16.420;2023-03-14T08:05:43;98254.50;;;13.88;48.74
48964;BME280;34776;48.180;16.420;2023-03-14T08:08:09;98243.53;;;13.81;48.67
48964;BME280;34776;48.180;16.420;2023-03-14T08:10:34;98249.13;;;13.68;48.44
48964;BME280;34776;48.180;16.420;2023-03-14T08:13:00;98233.53;;;13.64;48.54
48964;BME280;34776;48.180;16.420;2023-03-14T08:15:27;98231.41;;;13.57;48.63
48964;BME280;34776;48.180;16.420;2023-03-14T08:17:53;98233.53;;;13.64;48.74
48964;BME280;34776;48.180;16.420;2023-03-14T08:20:24;98247.84;;;13.63;49.10
48964;BME280;34776;48.180;16.420;2023-03-14T08:22:50;98239.31;;;13.59;49.12
48964;BME280;34776;48.180;16.420;2023-03-14T08:25:16;98238.44;;;13.49;49.12
48964;BME280;34776;48.180;16.420;2023-03-14T08:27:41;98250.47;;;13.43;49.05
48964;BME280;34776;48.180;16.420;2023-03-14T08:30:10;98249.34;;;13.36;49.27
48964;BME280;34776;48.180;16.420;2023-03-14T08:32:36;98240.41;;;13.26;49.20
48964;BME280;34776;48.180;16.420;2023-03-14T08:35:02;98245.28;;;13.20;49.45
48964;BME280;34776;48.180;16.420;2023-03-14T08:37:28;98240.78;;;13.11;49.61
48964;BME280;34776;48.180;16.420;2023-03-14T08:39:53;98241.06;;;13.08;49.48
48964;BME280;34776;48.180;16.420;2023-03-14T08:42:19;98241.06;;;13.08;49.52
48964;BME280;34776;48.180;16.420;2023-03-14T08:44:44;98249.44;;;13.04;49.50
48964;BME280;34776;48.180;16.420;2023-03-14T08:47:10;98243.19;;;12.93;49.70
48964;BME280;34776;48.180;16.420;2023-03-14T08:49:35;98250.16;;;12.85;49.99
48964;BME280;34776;48.180;16.420;2023-03-14T08:52:02;98248.75;;;12.80;50.06
48964;BME280;34776;48.180;16.420;2023-03-14T08:54:29;98239.19;;;12.78;50.08
48964;BME280;34776;48.180;16.420;2023-03-14T08:56:54;98230.34;;;12.77;50.15
48964;BME280;34776;48.180;16.420;2023-03-14T08:59:19;98229.78;;;12.74;50.16
48964;BME280;34776;48.180;16.420;2023-03-14T09:01:45;98225.34;;;12.63;50.71
48964;BME280;34776;48.180;16.420;2023-03-14T09:04:10;98228.41;;;12.58;50.76
48964;BME280;34776;48.180;16.420;2023-03-14T09:06:35;98233.44;;;12.52;50.88
48964;BME280;34776;48.180;16.420;2023-03-14T09:09:01;98228.34;;;12.49;50.99
48964;BME280;34776;48.180;16.420;2023-03-14T09:11:27;98218.16;;;12.54;50.89
48964;BME280;34776;48.180;16.420;2023-03-14T09:13:52;98211.91;;;12.65;50.77
48964;BME280;34776;48.180;16.420;2023-03-14T09:16:18;98215.31;;;12.76;50.42
48964;BME280;34776;48.180;16.420;2023-03-14T09:18:43;98217.75;;;12.79;50.59
48964;BME280;34776;48.180;16.420;2023-03-14T09:21:08;98226.00;;;12.76;50.65
48964;BME280;34776;48.180;16.420;2023-03-14T09:23:34;98233.47;;;12.83;50.84
48964;BME280;34776;48.180;16.420;2023-03-14T09:26:00;98237.84;;;12.84;50.73
48964;BME280;34776;48.180;16.420;2023-03-14T09:28:26;98232.63;;;12.82;50.63
48964;BME280;34776;48.180;16.420;2023-03-14T09:30:51;98235.94;;;12.74;51.24
48964;BME280;34776;48.180;16.420;2023-03-14T09:33:17;98238.03;;;12.71;51.12
48964;BME280;34776;48.180;16.420;2023-03-14T09:35:43;98234.97;;;12.75;51.22
48964;BME280;34776;48.180;16.420;2023-03-14T09:38:08;98241.72;;;12.79;51.19
48964;BME280;34776;48.180;16.420;2023-03-14T09:40:35;98236.41;;;12.79;51.06
48964;BME280;34776;48.180;16.420;2023-03-14T09:43:01;98230.78;;;12.83;51.12
48964;BME280;34776;48.180;16.420;2023-03-14T09:45:38;98228.84;;;12.85;51.53
48964;BME280;34776;48.180;16.420;2023-03-14T09:48:08;98236.31;;;12.91;51.10
48964;BME280;34776;48.180;16.420;2023-03-14T09:50:43;98230.44;;;12.97;51.23
48964;BME280;34776;48.180;16.420;2023-03-14T09:53:14;98222.75;;;13.04;51.25
48964;BME280;34776;48.180;16.420;2023-03-14T09:55:42;98220.69;;;13.07;50.94
48964;BME280;34776;48.180;16.420;2023-03-14T09:58:17;98221.81;;;13.05;51.24
48964;BME280;34776;48.180;16.420;2023-03-14T10:00:44;98231.25;;;13.18;51.68
48964;BME280;34776;48.180;16.420;2023-03-14T10:05:42;98233.19;;;13.07;51.02
48964;BME280;34776;48.180;16.420;2023-03-14T10:08:12;98228.69;;;13.07;51.36
48964;BME280;34776;48.180;16.420;2023-03-14T10:10:38;98229.81;;;13.14;51.45
48964;BME280;34776;48.180;16.420;2023-03-14T10:15:36;98228.00;;;13.36;51.16
48964;BME280;34776;48.180;16.420;2023-03-14T10:18:03;98215.94;;;13.51;51.19
48964;BME280;34776;48.180;16.420;2023-03-14T10:20:34;98220.63;;;13.69;50.83
48964;BME280;34776;48.180;16.420;2023-03-14T10:26:08;98219.41;;;13.92;50.56
48964;BME280;34776;48.180;16.420;2023-03-14T10:28:43;98224.47;;;14.05;50.39
48964;BME280;34776;48.180;16.420;2023-03-14T10:31:09;98217.72;;;14.11;50.29
48964;BME280;34776;48.180;16.420;2023-03-14T10:33:36;98222.50;;;14.17;50.40
48964;BME280;34776;48.180;16.420;2023-03-14T10:36:21;98228.28;;;14.22;50.32
48964;BME280;34776;48.180;16.420;2023-03-14T10:38:48;98232.88;;;14.30;50.07
48964;BME280;34776;48.180;16.420;2023-03-14T10:41:16;98223.59;;;14.34;49.84
48964;BME280;34776;48.180;16.420;2023-03-14T10:43:43;98222.22;;;14.39;49.81
48964;BME280;34776;48.180;16.420;2023-03-14T10:46:11;98233.31;;;14.45;49.74
48964;BME280;34776;48.180;16.420;2023-03-14T10:48:39;98231.50;;;14.45;49.63
48964;BME280;34776;48.180;16.420;2023-03-14T10:56:14;98225.88;;;14.29;50.85
48964;BME280;34776;48.180;16.420;2023-03-14T10:58:42;98233.59;;;14.32;51.02
48964;BME280;34776;48.180;16.420;2023-03-14T11:12:05;98218.53;;;14.50;50.35
48964;BME280;34776;48.180;16.420;2023-03-14T11:14:39;98222.06;;;14.31;50.07
48964;BME280;34776;48.180;16.420;2023-03-14T11:17:15;98219.69;;;14.18;49.88
48964;BME280;34776;48.180;16.420;2023-03-14T11:25:36;98212.38;;;14.11;49.15
48964;BME280;34776;48.180;16.420;2023-03-14T11:30:54;98232.47;;;13.95;49.17
48964;BME280;34776;48.180;16.420;2023-03-14T11:33:37;98216.28;;;13.87;48.93
48964;BME280;34776;48.180;16.420;2023-03-14T11:36:07;98216.31;;;13.97;48.91
48964;BME280;34776;48.180;16.420;2023-03-14T11:41:01;98222.22;;;13.91;48.50
48964;BME280;34776;48.180;16.420;2023-03-14T11:43:33;98229.50;;;13.79;47.86
48964;BME280;34776;48.180;16.420;2023-03-14T11:46:07;98234.25;;;13.66;48.18
48964;BME280;34776;48.180;16.420;2023-03-14T11:48:45;98229.59;;;13.58;48.41
48964;BME280;34776;48.180;16.420;2023-03-14T11:51:22;98236.47;;;13.60;48.39
48964;BME280;34776;48.180;16.420;2023-03-14T11:54:11;98231.97;;;13.51;48.63
48964;BME280;34776;48.180;16.420;2023-03-14T11:57:21;98238.72;;;13.55;48.64
48964;BME280;34776;48.180;16.420;2023-03-14T11:59:57;98238.13;;;13.42;48.64
48964;BME280;34776;48.180;16.420;2023-03-14T12:10:46;98211.50;;;13.81;48.54
48964;BME280;34776;48.180;16.420;2023-03-14T12:13:15;98216.44;;;13.76;48.40
48964;BME280;34776;48.180;16.420;2023-03-14T12:15:47;98220.63;;;13.69;48.77
48964;BME280;34776;48.180;16.420;2023-03-14T12:18:28;98219.38;;;13.63;48.93
48964;BME280;34776;48.180;16.420;2023-03-14T12:20:57;98227.63;;;13.60;49.08
48964;BME280;34776;48.180;16.420;2023-03-14T12:23:24;98221.03;;;13.54;49.02
48964;BME280;34776;48.180;16.420;2023-03-14T12:26:07;98223.78;;;13.43;49.19
48964;BME280;34776;48.180;16.420;2023-03-14T12:28:33;98210.81;;;13.29;49.34
48964;BME280;34776;48.180;16.420;2023-03-14T12:47:51;98219.06;;;12.95;50.14
48964;BME280;34776;48.180;16.420;2023-03-14T12:50:53;98207.28;;;12.97;50.37
48964;BME280;34776;48.180;16.420;2023-03-14T12:56:49;98208.69;;;12.92;50.35
48964;BME280;34776;48.180;16.420;2023-03-14T13:01:58;98214.03;;;12.92;50.08
48964;BME280;34776;48.180;16.420;2023-03-14T13:04:48;98204.06;;;12.94;50.40
48964;BME280;34776;48.180;16.420;2023-03-14T13:10:45;98208.09;;;12.88;50.18
48964;BME280;34776;48.180;16.420;2023-03-14T13:13:26;98209.22;;;12.86;50.23
48964;BME280;34776;48.180;16.420;2023-03-14T13:15:59;98214.56;;;12.86;50.32
48964;BME280;34776;48.180;16.420;2023-03-14T13:18:40;98216.75;;;12.80;50.48
48964;BME280;34776;48.180;16.420;2023-03-14T13:23:55;98217.84;;;12.68;50.60
48964;BME280;34776;48.180;16.420;2023-03-14T13:26:23;98218.09;;;12.65;50.53
48964;BME280;34776;48.180;16.420;2023-03-14T13:28:49;98214.97;;;12.60;50.67
48964;BME280;34776;48.180;16.420;2023-03-14T13:31:22;98222.50;;;12.55;50.84
48964;BME280;34776;48.180;16.420;2023-03-14T13:34:09;98226.91;;;12.45;51.24
48964;BME280;34776;48.180;16.420;2023-03-14T13:36:36;98232.91;;;12.37;51.11
48964;BME280;34776;48.180;16.420;2023-03-14T13:39:02;98231.31;;;12.34;51.22
48964;BME280;34776;48.180;16.420;2023-03-14T13:41:28;98232.03;;;12.36;51.47
48964;BME280;34776;48.180;16.420;2023-03-14T13:44:02;98234.25;;;12.31;51.66
48964;BME280;34776;48.180;16.420;2023-03-14T13:46:29;98239.59;;;12.31;51.49
48964;BME280;34776;48.180;16.420;2023-03-14T13:48:58;98234.06;;;12.23;52.01
48964;BME280;34776;48.180;16.420;2023-03-14T13:51:26;98243.34;;;12.29;51.83
48964;BME280;34776;48.180;16.420;2023-03-14T13:53:58;98241.75;;;12.37;51.80
48964;BME280;34776;48.180;16.420;2023-03-14T13:56:30;98233.88;;;12.36;51.48
48964;BME280;34776;48.180;16.420;2023-03-14T13:58:56;98236.41;;;12.37;51.65
48964;BME280;34776;48.180;16.420;2023-03-14T14:01:27;98249.25;;;12.32;51.87
48964;BME280;34776;48.180;16.420;2023-03-14T14:03:57;98242.69;;;12.36;51.90
48964;BME280;34776;48.180;16.420;2023-03-14T14:06:37;98240.31;;;12.33;52.37
48964;BME280;34776;48.180;16.420;2023-03-14T14:09:10;98239.84;;;11.96;54.00
48964;BME280;34776;48.180;16.420;2023-03-14T14:12:03;98247.88;;;11.62;55.83
48964;BME280;34776;48.180;16.420;2023-03-14T14:14:34;98256.38;;;11.45;56.47
48964;BME280;34776;48.180;16.420;2023-03-14T14:17:04;98267.28;;;11.30;56.63
48964;BME280;34776;48.180;16.420;2023-03-14T14:19:32;98252.63;;;11.25;57.03
48964;BME280;34776;48.180;16.420;2023-03-14T14:21:58;98251.81;;;11.24;57.65
48964;BME280;34776;48.180;16.420;2023-03-14T14:24:28;98250.47;;;11.18;57.90